createdAt,value
2022-08-10T00:00:55.819Z,98235.25
2022-08-10T00:03:22.402Z,98236.97
2022-08-10T00:05:52.716Z,98230.09
2022-08-10T00:08:23.762Z,98233.53
2022-08-10T00:10:54.194Z,98229.19
2022-08-10T00:13:20.975Z,98234.34
2022-08-10T00:15:54.124Z,98235.25
2022-08-10T00:18:34.933Z,98231.69
2022-08-10T00:21:02.124Z,98237.84
2022-08-10T00:23:28.671Z,98236.16
2022-08-10T00:25:55.239Z,98231.00
2022-08-10T00:28:21.795Z,98230.16
2022-08-10T00:30:48.368Z,98221.53
2022-08-10T00:33:14.901Z,98217.25
2022-08-10T00:35:41.505Z,98218.09
2022-08-10T00:38:08.056Z,98216.38
2022-08-10T00:40:37.895Z,98220.66
2022-08-10T00:43:05.677Z,98224.06
2022-08-10T00:45:32.214Z,98197.25
2022-08-10T00:47:58.779Z,98218.91
2022-08-10T00:50:25.363Z,98221.47
2022-08-10T00:52:51.928Z,98212.06
2022-08-10T00:55:18.463Z,98218.94
2022-08-10T00:57:45.032Z,98221.53
2022-08-10T01:00:21.595Z,98218.09
2022-08-10T01:02:48.225Z,98217.25
2022-08-10T01:05:14.962Z,98206.81
2022-08-10T01:08:15.496Z,98215.53
2022-08-10T01:10:54.104Z,98212.06
2022-08-10T01:13:23.675Z,98215.53
2022-08-10T01:15:58.821Z,98205.13
2022-08-10T01:18:28.368Z,98207.78
2022-08-10T01:21:15.468Z,98214.59
2022-08-10T01:24:25.159Z,98206.00
2022-08-10T01:27:07.504Z,98199.81
2022-08-10T01:29:57.908Z,98212.03
2022-08-10T01:32:50.467Z,98217.19
2022-08-10T01:35:25.004Z,98212.91
2022-08-10T01:37:58.999Z,98208.56
2022-08-10T01:40:25.882Z,98206.88
2022-08-10T01:42:53.007Z,98207.78
2022-08-10T01:45:19.660Z,98205.13
2022-08-10T01:48:04.837Z,98210.34
2022-08-10T01:50:59.835Z,98212.91
2022-08-10T01:53:41.094Z,98214.59
2022-08-10T01:56:09.662Z,98212.03
2022-08-10T01:58:36.239Z,98216.28
2022-08-10T02:01:02.960Z,98215.44
2022-08-10T02:03:29.723Z,98214.56
2022-08-10T02:05:56.368Z,98213.69
2022-08-10T02:08:24.325Z,98207.72
2022-08-10T02:10:50.900Z,98201.59
2022-08-10T02:13:19.026Z,98208.56
2022-08-10T02:16:00.943Z,98190.38
2022-08-10T02:18:29.735Z,98203.44
2022-08-10T02:20:56.329Z,98192.94
2022-08-10T02:23:25.469Z,98209.47
2022-08-10T02:25:53.098Z,98209.47
2022-08-10T02:28:30.158Z,98198.09
2022-08-10T02:31:06.560Z,98186.88
2022-08-10T02:33:37.353Z,98210.31
2022-08-10T02:36:08.391Z,98187.69
2022-08-10T02:38:58.900Z,98201.66
2022-08-10T02:45:12.666Z,98202.53
2022-08-10T02:45:19.600Z,98195.69
2022-08-10T02:47:52.305Z,98200.81
2022-08-10T02:50:35.238Z,98203.41
2022-08-10T02:53:54.594Z,98199.13
2022-08-10T02:56:12.247Z,98200.00
2022-08-10T02:58:40.838Z,98201.69
2022-08-10T03:01:12.455Z,96808.81
2022-08-10T03:03:53.108Z,98200.81
2022-08-10T03:06:20.967Z,98212.00
2022-08-10T03:08:47.616Z,98200.81
2022-08-10T03:11:18.363Z,98188.66
2022-08-10T03:14:04.877Z,98195.63
2022-08-10T03:16:33.234Z,98193.06
2022-08-10T03:19:01.880Z,98187.09
2022-08-10T03:21:28.400Z,98164.38
2022-08-10T03:23:54.984Z,98194.81
2022-08-10T03:26:21.510Z,98161.78
2022-08-10T03:28:48.363Z,98168.56
2022-08-10T03:31:14.945Z,98192.25
2022-08-10T03:33:41.781Z,98198.25
2022-08-10T03:36:40.133Z,98199.13
2022-08-10T03:38:55.301Z,98198.25
2022-08-10T03:41:29.856Z,98187.84
2022-08-10T03:44:02.490Z,98187.97
2022-08-10T03:46:29.044Z,98196.50
2022-08-10T03:48:56.690Z,98194.81
2022-08-10T03:51:23.273Z,98186.06
2022-08-10T03:54:06.231Z,98197.34
2022-08-10T03:56:38.215Z,98152.94
2022-08-10T03:59:09.052Z,98195.63
2022-08-10T04:02:43.144Z,98199.09
2022-08-10T04:04:24.558Z,98197.25
2022-08-10T04:06:54.527Z,98209.38
2022-08-10T04:09:22.528Z,98205.94
2022-08-10T04:11:49.057Z,98202.53
2022-08-10T04:14:47.211Z,98203.41
2022-08-10T04:17:02.109Z,98205.13
2022-08-10T04:19:28.664Z,98210.16
2022-08-10T04:22:00.584Z,98211.94
2022-08-10T04:24:31.959Z,98211.84
2022-08-10T04:27:00.604Z,98199.75
2022-08-10T04:29:27.176Z,98210.09
2022-08-10T04:31:53.740Z,98220.50
2022-08-10T04:34:20.614Z,98005.56
2022-08-10T04:36:47.709Z,98223.94
2022-08-10T04:39:14.553Z,98220.50
2022-08-10T04:41:41.951Z,98226.50
2022-08-10T04:44:14.039Z,98222.25
2022-08-10T04:46:55.794Z,98223.97
2022-08-10T04:49:54.266Z,98226.53
2022-08-10T04:52:11.756Z,98231.69
2022-08-10T04:54:38.292Z,98235.16
2022-08-10T04:57:05.308Z,98232.53
2022-08-10T04:59:31.882Z,98232.53
2022-08-10T05:02:28.383Z,98235.94
2022-08-10T05:04:44.951Z,98235.94
2022-08-10T05:07:16.594Z,98236.81
2022-08-10T05:10:03.124Z,98228.13
2022-08-10T05:12:35.704Z,98241.13
2022-08-10T05:15:14.012Z,98248.84
2022-08-10T05:17:41.360Z,98252.28
2022-08-10T05:20:27.930Z,98244.56
2022-08-10T05:22:54.458Z,98242.88
2022-08-10T05:25:21.083Z,98253.19
2022-08-10T05:27:47.829Z,98242.03
2022-08-10T05:30:18.998Z,98220.31
2022-08-10T05:32:56.560Z,98247.16
2022-08-10T05:35:24.966Z,98249.66
2022-08-10T05:38:13.490Z,98247.16
2022-08-10T05:40:39.336Z,98260.88
2022-08-10T05:43:06.003Z,98237.72
2022-08-10T05:45:32.550Z,98241.19
2022-08-10T05:48:57.769Z,98237.75
2022-08-10T05:50:45.669Z,98232.56
2022-08-10T05:54:00.825Z,98231.72
2022-08-10T05:55:59.313Z,98225.63
2022-08-10T05:58:25.869Z,98209.91
2022-08-10T06:00:55.843Z,98234.34
2022-08-10T06:03:28.043Z,98221.38
2022-08-10T06:05:55.711Z,98225.69
2022-08-10T06:08:24.884Z,98229.19
2022-08-10T06:12:21.713Z,98228.34
2022-08-10T06:14:14.732Z,98178.81
2022-08-10T06:16:43.757Z,98225.75
2022-08-10T06:19:11.048Z,98228.31
2022-08-10T06:21:41.075Z,98230.00
2022-08-10T06:24:31.318Z,98218.03
2022-08-10T06:26:58.910Z,98221.44
2022-08-10T06:29:25.455Z,98223.16
2022-08-10T06:31:52.208Z,98231.72
2022-08-10T06:34:28.970Z,98202.16
2022-08-10T06:36:56.314Z,98209.88
2022-08-10T06:39:34.038Z,98221.28
2022-08-10T06:42:16.856Z,98233.50
2022-08-10T06:44:52.069Z,98203.00
2022-08-10T06:47:23.164Z,97999.31
2022-08-10T06:49:50.924Z,98226.59
2022-08-10T06:52:18.477Z,98206.38
2022-08-10T06:54:45.156Z,98229.16
2022-08-10T06:57:18.944Z,98207.28
2022-08-10T06:59:45.645Z,98230.00
2022-08-10T07:02:15.148Z,98224.75
2022-08-10T07:05:01.396Z,98225.78
2022-08-10T07:07:29.861Z,98228.28
2022-08-10T07:09:57.471Z,98230.94
2022-08-10T07:12:25.353Z,98223.97
2022-08-10T07:14:52.159Z,98231.81
2022-08-10T07:17:25.757Z,98233.56
2022-08-10T07:19:54.443Z,98207.38
2022-08-10T07:23:26.827Z,98230.13
2022-08-10T07:25:13.071Z,98195.31
2022-08-10T07:27:59.082Z,98237.84
2022-08-10T07:30:28.441Z,98201.34
2022-08-10T07:32:55.089Z,98204.84
2022-08-10T07:35:21.753Z,98229.19
2022-08-10T07:37:49.396Z,98235.19
2022-08-10T07:40:17.207Z,98218.75
2022-08-10T07:42:46.027Z,98230.88
2022-08-10T07:45:12.913Z,98218.88
2022-08-10T07:48:03.692Z,98218.03
2022-08-10T07:50:35.470Z,98177.97
2022-08-10T07:53:03.076Z,98199.69
2022-08-10T07:56:04.731Z,98213.69
2022-08-10T07:58:18.404Z,98227.44
2022-08-10T08:00:45.857Z,98207.66
2022-08-10T08:03:13.370Z,98179.69
2022-08-10T08:05:58.715Z,98217.06
2022-08-10T08:08:28.792Z,98220.66
2022-08-10T08:10:55.467Z,98212.88
2022-08-10T08:13:22.805Z,98212.84
2022-08-10T08:16:18.641Z,98219.78
2022-08-10T08:18:37.106Z,98212.00
2022-08-10T08:21:03.869Z,98199.78
2022-08-10T08:24:07.805Z,98181.53
2022-08-10T08:26:37.748Z,98191.94
2022-08-10T08:29:04.958Z,98192.06
2022-08-10T08:31:31.653Z,98210.38
2022-08-10T08:33:58.237Z,98211.19
2022-08-10T08:36:26.404Z,98181.50
2022-08-10T08:38:52.967Z,98172.00
2022-08-10T08:41:25.349Z,98218.06
2022-08-10T08:44:16.700Z,98213.75
2022-08-10T08:46:59.213Z,98215.47
2022-08-10T08:50:09.532Z,98213.75
2022-08-10T08:52:53.541Z,98214.59
2022-08-10T08:56:03.452Z,98205.06
2022-08-10T08:58:47.661Z,98205.19
2022-08-10T09:01:37.976Z,98216.34
2022-08-10T09:04:52.691Z,98213.75
2022-08-10T09:08:01.996Z,98215.47
2022-08-10T09:10:50.530Z,98218.06
2022-08-10T09:13:33.721Z,98221.47
2022-08-10T09:16:31.365Z,98212.94
2022-08-10T09:19:11.184Z,98213.00
2022-08-10T09:22:17.284Z,98219.03
2022-08-10T09:25:17.621Z,98219.94
2022-08-10T09:27:49.395Z,98221.75
2022-08-10T09:30:19.129Z,98225.25
2022-08-10T09:36:16.276Z,98221.88
2022-08-10T09:36:24.975Z,98222.78
2022-08-10T09:40:12.632Z,98217.69
2022-08-10T09:42:14.579Z,98214.25
2022-08-10T09:45:23.648Z,98202.19
2022-08-10T09:48:06.940Z,98206.50
2022-08-10T09:51:16.437Z,98201.31
2022-08-10T09:53:45.564Z,98192.75
2022-08-10T09:56:36.645Z,98180.44
2022-08-10T10:00:00.585Z,98186.69
2022-08-10T10:02:48.929Z,98198.66
2022-08-10T10:05:52.197Z,98196.06
2022-08-10T10:08:22.086Z,98193.47
2022-08-10T10:11:03.400Z,98184.88
2022-08-10T10:14:02.706Z,98162.50
2022-08-10T10:16:56.377Z,98173.63
2022-08-10T10:19:41.628Z,98192.47
2022-08-10T10:22:26.510Z,98181.31
2022-08-10T10:25:19.710Z,98174.47
2022-08-10T10:28:09.172Z,98189.06
2022-08-10T10:30:38.816Z,98184.81
2022-08-10T10:33:27.143Z,98168.41
2022-08-10T10:35:56.736Z,98176.19
2022-08-10T10:38:26.956Z,98153.66
2022-08-10T10:41:24.387Z,98170.13
2022-08-10T10:44:04.758Z,98158.16
2022-08-10T10:46:50.439Z,98165.03
2022-08-10T10:49:21.929Z,98047.59
2022-08-10T10:52:00.094Z,98163.31
2022-08-10T10:54:40.701Z,98144.25
2022-08-10T10:57:19.506Z,98145.91
2022-08-10T10:59:57.515Z,98156.38
2022-08-10T11:02:43.023Z,98159.78
2022-08-10T11:05:15.302Z,98157.19
2022-08-10T11:07:53.442Z,98149.44
2022-08-10T11:10:47.311Z,98138.94
2022-08-10T11:14:24.341Z,98140.00
2022-08-10T11:16:31.661Z,98152.84
2022-08-10T11:19:19.934Z,98140.84
2022-08-10T11:22:08.142Z,98138.25
2022-08-10T11:24:50.414Z,98157.13
2022-08-10T11:27:38.558Z,98145.13
2022-08-10T11:30:09.592Z,98153.59
2022-08-10T11:32:39.065Z,98152.84
2022-08-10T11:35:41.668Z,98146.88
2022-08-10T11:38:32.387Z,98159.81
2022-08-10T11:41:14.599Z,98148.63
2022-08-10T11:43:54.088Z,98152.00
2022-08-10T11:46:28.713Z,98148.66
2022-08-10T11:49:21.500Z,98127.00
2022-08-10T11:51:49.092Z,98138.34
2022-08-10T11:54:26.268Z,98132.31
2022-08-10T11:56:57.266Z,98130.53
2022-08-10T11:59:49.037Z,98117.59
2022-08-10T12:02:16.328Z,98114.97
2022-08-10T12:04:48.972Z,98117.72
2022-08-10T12:10:01.950Z,98116.00
2022-08-10T12:10:13.056Z,98122.88
2022-08-10T12:13:02.910Z,98115.81
2022-08-10T12:15:47.808Z,98128.84
2022-08-10T12:18:17.481Z,98125.41
2022-08-10T12:20:44.044Z,98125.44
2022-08-10T12:23:22.392Z,98122.88
2022-08-10T12:26:13.017Z,98095.13
2022-08-10T12:28:49.412Z,98119.41
2022-08-10T12:31:18.069Z,98107.38
2022-08-10T12:34:02.373Z,98115.13
2022-08-10T12:36:36.570Z,98095.31
2022-08-10T12:39:27.078Z,98103.09
2022-08-10T12:42:12.857Z,98103.97
2022-08-10T12:45:05.834Z,98094.50
2022-08-10T12:47:40.391Z,98077.25
2022-08-10T12:50:37.845Z,98093.66
2022-08-10T12:53:31.192Z,98095.34
2022-08-10T12:55:57.797Z,98089.34
2022-08-10T12:58:59.159Z,98079.03
2022-08-10T13:01:16.632Z,98079.91
2022-08-10T13:04:23.228Z,98073.81
2022-08-10T13:06:33.002Z,98082.44
2022-08-10T13:09:08.448Z,98084.19
2022-08-10T13:12:44.566Z,98091.91
2022-08-10T13:14:32.753Z,98086.78
2022-08-10T13:17:00.147Z,98085.91
2022-08-10T13:19:28.215Z,98076.38
2022-08-10T13:22:14.787Z,98064.22
2022-08-10T13:24:43.115Z,98072.97
2022-08-10T13:27:26.166Z,98070.38
2022-08-10T13:30:03.767Z,98065.16
2022-08-10T13:32:33.120Z,98077.28
2022-08-10T13:35:11.125Z,98056.59
2022-08-10T13:37:37.879Z,98067.00
2022-08-10T13:40:05.073Z,98066.19
2022-08-10T13:42:34.434Z,97948.91
2022-08-10T13:45:09.862Z,98056.72
2022-08-10T13:47:48.692Z,98043.72
2022-08-10T13:50:33.179Z,98048.84
2022-08-10T13:53:03.807Z,98037.66
2022-08-10T13:55:48.671Z,98060.16
2022-08-10T13:58:17.117Z,98053.28
2022-08-10T14:00:43.688Z,98042.16
2022-08-10T14:03:16.562Z,98049.00
2022-08-10T14:05:51.112Z,98051.56
2022-08-10T14:08:19.030Z,98045.56
2022-08-10T14:11:09.290Z,98052.44
2022-08-10T14:13:32.664Z,98036.09
2022-08-10T14:15:59.192Z,98045.63
2022-08-10T14:18:25.734Z,98039.59
2022-08-10T14:20:52.248Z,98030.09
2022-08-10T14:23:18.816Z,98026.59
2022-08-10T14:25:58.353Z,98038.75
2022-08-10T14:28:26.505Z,98034.44
2022-08-10T14:31:00.696Z,98032.75
2022-08-10T14:33:27.276Z,98036.13
2022-08-10T14:36:22.311Z,98043.03
2022-08-10T14:38:41.892Z,98034.44
2022-08-10T14:41:15.142Z,98027.56
2022-08-10T14:44:06.865Z,98005.09
2022-08-10T14:46:34.067Z,98024.16
2022-08-10T14:49:00.832Z,98025.03
2022-08-10T14:51:47.438Z,98029.28
2022-08-10T14:54:15.879Z,98027.53
2022-08-10T14:56:44.506Z,98020.69
2022-08-10T14:59:15.627Z,98015.56
2022-08-10T15:02:00.240Z,98009.59
2022-08-10T15:04:31.604Z,98011.28
2022-08-10T15:07:01.275Z,98006.16
2022-08-10T15:09:59.830Z,97988.81
2022-08-10T15:12:24.923Z,98010.41
2022-08-10T15:14:54.275Z,98019.00
2022-08-10T15:17:28.891Z,97994.03
2022-08-10T15:20:12.823Z,98006.16
2022-08-10T15:22:40.616Z,98007.03
2022-08-10T15:25:19.409Z,98003.56
2022-08-10T15:27:54.600Z,97989.81
2022-08-10T15:30:29.648Z,97976.06
2022-08-10T15:33:21.485Z,97992.41
2022-08-10T15:36:23.895Z,97987.25
2022-08-10T15:38:56.767Z,97982.13
2022-08-10T15:41:57.761Z,97983.84
2022-08-10T15:44:43.232Z,97977.81
2022-08-10T15:47:45.035Z,97980.38
2022-08-10T15:50:19.982Z,97947.41
2022-08-10T15:53:00.977Z,97982.97
2022-08-10T15:55:41.312Z,97980.38
2022-08-10T15:58:15.479Z,97980.38
2022-08-10T16:01:04.197Z,97985.53
2022-08-10T16:03:56.792Z,97974.38
2022-08-10T16:06:43.657Z,97974.38
2022-08-10T16:10:24.092Z,97970.97
2022-08-10T16:12:15.098Z,97966.66
2022-08-10T16:14:43.932Z,97961.38
2022-08-10T16:17:11.427Z,97968.38
2022-08-10T16:19:45.558Z,97938.75
2022-08-10T16:22:35.820Z,97933.66
2022-08-10T16:24:59.058Z,97964.91
2022-08-10T16:27:27.227Z,97957.03
2022-08-10T16:29:59.688Z,97956.25
2022-08-10T16:32:27.063Z,97963.22
2022-08-10T16:34:53.765Z,97950.13
2022-08-10T16:37:20.301Z,97964.94
2022-08-10T16:40:01.080Z,97973.53
2022-08-10T16:42:29.808Z,97957.22
2022-08-10T16:45:15.938Z,97956.34
2022-08-10T16:47:50.868Z,97957.94
2022-08-10T16:50:22.401Z,97969.16
2022-08-10T16:52:49.755Z,97962.28
2022-08-10T16:55:24.242Z,97962.31
2022-08-10T16:58:05.581Z,97963.19
2022-08-10T17:00:32.150Z,97958.09
2022-08-10T17:03:03.234Z,97959.81
2022-08-10T17:06:01.499Z,97947.72
2022-08-10T17:08:38.828Z,97964.09
2022-08-10T17:11:14.992Z,97961.56
2022-08-10T17:13:41.536Z,97947.00
2022-08-10T17:16:08.971Z,97957.34
2022-08-10T17:18:37.636Z,97946.16
2022-08-10T17:21:18.286Z,97947.78
2022-08-10T17:23:47.060Z,97953.06
2022-08-10T17:26:23.850Z,97952.22
2022-08-10T17:29:57.902Z,97953.91
2022-08-10T17:32:16.915Z,97927.84
2022-08-10T17:34:48.440Z,97954.78
2022-08-10T17:37:20.315Z,97956.50
2022-08-10T17:39:49.969Z,97955.72
2022-08-10T17:42:21.902Z,97958.31
2022-08-10T17:44:49.368Z,97942.75
2022-08-10T17:47:15.990Z,97955.78
2022-08-10T17:49:43.433Z,97921.03
2022-08-10T17:52:10.991Z,97944.53
2022-08-10T17:54:41.864Z,97956.66
2022-08-10T17:57:11.314Z,97954.94
2022-08-10T17:59:38.274Z,97959.28
2022-08-10T18:02:13.763Z,97966.19
2022-08-10T18:04:42.055Z,97960.19
2022-08-10T18:07:09.786Z,97945.47
2022-08-10T18:09:42.647Z,97960.19
2022-08-10T18:12:18.272Z,97962.81
2022-08-10T18:14:46.775Z,97958.44
2022-08-10T18:17:17.149Z,97962.81
2022-08-10T18:19:45.341Z,97949.72
2022-08-10T18:22:15.008Z,97974.81
2022-08-10T18:24:42.391Z,97974.81
2022-08-10T18:27:08.960Z,97968.81
2022-08-10T18:29:38.452Z,97946.16
2022-08-10T18:32:05.508Z,97948.69
2022-08-10T18:34:32.691Z,97975.69
2022-08-10T18:36:59.610Z,97966.09
2022-08-10T18:39:28.095Z,97968.63
2022-08-10T18:42:00.561Z,97971.34
2022-08-10T18:44:35.087Z,97968.66
2022-08-10T18:47:03.883Z,97969.47
2022-08-10T18:49:32.968Z,97984.16
2022-08-10T18:52:02.749Z,97986.66
2022-08-10T18:54:45.047Z,97993.72
2022-08-10T18:57:28.428Z,97992.84
2022-08-10T19:00:18.053Z,97958.97
2022-08-10T19:03:02.713Z,98005.69
2022-08-10T19:05:50.436Z,98008.28
2022-08-10T19:08:31.588Z,97983.00
2022-08-10T19:11:14.643Z,97997.78
2022-08-10T19:14:04.013Z,98016.88
2022-08-10T19:16:48.792Z,97983.94
2022-08-10T19:19:41.146Z,98018.56
2022-08-10T19:22:18.607Z,98014.31
2022-08-10T19:25:01.820Z,98020.28
2022-08-10T19:27:40.662Z,98018.56
2022-08-10T19:30:13.686Z,98022.00
2022-08-10T19:33:08.856Z,98020.28
2022-08-10T19:36:12.129Z,98025.44
2022-08-10T19:38:50.733Z,98030.59
2022-08-10T19:41:32.608Z,98022.84
2022-08-10T19:44:35.798Z,98023.72
2022-08-10T19:47:05.409Z,98013.41
2022-08-10T19:49:41.450Z,98003.91
2022-08-10T19:52:32.973Z,98012.59
2022-08-10T19:55:15.672Z,98010.03
2022-08-10T19:57:54.367Z,98010.88
2022-08-10T20:00:25.482Z,98017.75
2022-08-10T20:03:15.573Z,98005.53
2022-08-10T20:06:13.302Z,98009.06
2022-08-10T20:09:01.714Z,98020.38
2022-08-10T20:11:47.646Z,98024.63
2022-08-10T20:14:54.190Z,98021.22
2022-08-10T20:17:25.767Z,98022.91
2022-08-10T20:19:55.024Z,98028.91
2022-08-10T20:22:30.485Z,97995.97
2022-08-10T20:25:01.613Z,98012.50
2022-08-10T20:28:00.959Z,98015.16
2022-08-10T20:30:23.672Z,98015.16
2022-08-10T20:32:57.873Z,98013.41
2022-08-10T20:35:46.184Z,98011.69
2022-08-10T20:38:17.825Z,98013.34
2022-08-10T20:41:05.010Z,98015.97
2022-08-10T20:43:43.965Z,98020.22
2022-08-10T20:46:24.782Z,98027.06
2022-08-10T20:49:01.624Z,98028.75
2022-08-10T20:51:57.476Z,97996.72
2022-08-10T20:54:19.047Z,98001.03
2022-08-10T20:56:55.987Z,98008.81
2022-08-10T20:59:37.067Z,97994.84
2022-08-10T21:02:35.744Z,98022.69
2022-08-10T21:05:23.671Z,98028.66
2022-08-10T21:08:08.304Z,98026.09
2022-08-10T21:10:57.874Z,97996.81
2022-08-10T21:13:33.517Z,98014.09
2022-08-10T21:16:37.701Z,98020.91
2022-08-10T21:19:04.507Z,98012.38
2022-08-10T21:21:46.085Z,98014.06
2022-08-10T21:24:26.453Z,98018.34
2022-08-10T21:26:56.127Z,98009.78
2022-08-10T21:29:56.015Z,98008.88
2022-08-10T21:33:04.221Z,98008.88
2022-08-10T21:35:44.466Z,98017.44
2022-08-10T21:38:33.755Z,98020.00
2022-08-10T21:41:56.625Z,98003.47
2022-08-10T21:45:07.747Z,98013.97
2022-08-10T21:48:07.466Z,98004.53
2022-08-10T21:51:08.872Z,98011.34
2022-08-10T21:54:11.879Z,98011.34
2022-08-10T21:57:02.110Z,97997.47
2022-08-10T22:00:15.345Z,98001.94
2022-08-10T22:03:00.482Z,98007.06
2022-08-10T22:05:47.990Z,97995.84
2022-08-10T22:08:35.680Z,98002.75
2022-08-10T22:11:21.640Z,97989.00
2022-08-10T22:14:09.600Z,97993.31
2022-08-10T22:17:05.150Z,97995.00
2022-08-10T22:19:56.337Z,97991.56
2022-08-10T22:23:30.015Z,97996.75
2022-08-10T22:27:00.537Z,97985.56
2022-08-10T22:29:57.793Z,97987.28
2022-08-10T22:33:03.129Z,97978.69
2022-08-10T22:36:10.060Z,97978.69
2022-08-10T22:40:11.735Z,97982.13
2022-08-10T22:42:58.094Z,97988.09
2022-08-10T22:45:38.028Z,97983.84
2022-08-10T22:48:25.012Z,97988.06
2022-08-10T22:50:54.893Z,97990.69
2022-08-10T22:53:56.711Z,97984.69
2022-08-10T22:56:41.889Z,97982.06
2022-08-10T22:59:08.889Z,97970.00
2022-08-10T23:02:08.105Z,97967.34
2022-08-10T23:04:45.285Z,97976.13
2022-08-10T23:07:17.854Z,97974.38
2022-08-10T23:10:05.975Z,97981.25
2022-08-10T23:12:48.951Z,97961.31
2022-08-10T23:15:44.200Z,97967.53
2022-08-10T23:18:31.365Z,97971.78
2022-08-10T23:20:57.949Z,97963.09
2022-08-10T23:23:24.578Z,97860.53
2022-08-10T23:25:56.424Z,97974.31
2022-08-10T23:28:39.131Z,97973.50
2022-08-10T23:31:11.499Z,97968.34
2022-08-10T23:33:38.555Z,97959.59
2022-08-10T23:36:34.005Z,97969.22
2022-08-10T23:38:57.168Z,97970.06
2022-08-10T23:41:38.761Z,97960.63
2022-08-10T23:44:05.334Z,97967.53
2022-08-10T23:46:37.554Z,97965.81
2022-08-10T23:49:04.232Z,97968.41
2022-08-10T23:51:54.720Z,97963.19
2022-08-10T23:54:23.349Z,97970.97
2022-08-10T23:56:52.196Z,97958.75
2022-08-10T23:59:21.125Z,97972.66
